Time;durP1;ratioP1;P1;durP2;ratioP2;P2;SDS_P1;SDS_P2;PMS_P1;PMS_P2;Temp;Humidity;BMP_temperature;BMP_pressure;BME280_temperature;BME280_humidity;BME280_pressure;Samples;Min_cycle;Max_cycle;Signal;HPM_P1;HPM_P2
2023/02/19 00:01:26;;;;;;;1.08;1.08;;;;;;;12.55;47.03;97024.84;5026636;28;20057;-59
2023/02/19 00:03:55;;;;;;;1.00;1.00;;;;;;;12.19;47.40;96965.41;5025737;28;20061;-57
2023/02/19 00:06:24;;;;;;;0.90;0.90;;;;;;;12.54;46.94;97003.81;5026646;28;20057;-57
2023/02/19 00:08:51;;;;;;;0.90;0.90;;;;;;;12.64;47.07;97036.47;5026760;28;20132;-57
2023/02/19 00:11:20;;;;;;;1.10;1.10;;;;;;;12.32;47.20;96979.00;5026677;28;20119;-57
2023/02/19 00:13:50;;;;;;;0.90;0.90;;;;;;;12.19;49.50;97011.81;5024512;28;20046;-57
2023/02/19 00:16:23;;;;;;;1.00;1.00;;;;;;;11.85;50.48;97010.28;5025081;28;20489;-57
2023/02/19 00:18:51;;;;;;;1.00;1.00;;;;;;;11.37;51.45;97017.56;5024746;28;20049;-58
2023/02/19 00:21:17;;;;;;;0.90;0.90;;;;;;;11.23;51.81;97016.56;5025758;28;20100;-59
2023/02/19 00:24:11;;;;;;;0.90;0.90;;;;;;;11.15;51.85;97015.69;5025483;28;20053;-58
2023/02/19 00:26:39;;;;;;;0.93;0.93;;;;;;;11.19;51.91;97027.59;5003412;28;20139;-57
2023/02/19 00:29:08;;;;;;;0.88;0.88;;;;;;;11.11;51.96;97019.56;5005946;28;20505;-58
2023/02/19 00:31:35;;;;;;;1.00;1.00;;;;;;;10.98;52.44;97020.97;5006662;28;20324;-57
2023/02/19 00:34:05;;;;;;;0.90;0.90;;;;;;;10.98;52.51;97026.50;5018628;28;20448;-59
2023/02/19 00:36:35;;;;;;;0.90;0.90;;;;;;;10.91;52.40;97018.09;5025431;28;20060;-57
2023/02/19 00:39:02;;;;;;;0.90;0.90;;;;;;;10.92;52.59;97017.72;5025480;28;20088;-58
2023/02/19 00:41:29;;;;;;;0.90;0.90;;;;;;;10.40;53.34;96968.59;5025922;28;20540;-58
2023/02/19 00:43:57;;;;;;;1.00;1.00;;;;;;;10.66;53.77;97021.28;5025195;28;20048;-57
2023/02/19 00:46:29;;;;;;;0.90;0.90;;;;;;;10.43;53.81;97001.09;5025429;28;20076;-58
2023/02/19 00:48:57;;;;;;;0.90;0.90;;;;;;;10.53;54.22;97017.09;5025931;28;20080;-57
2023/02/19 00:51:27;;;;;;;0.85;0.85;;;;;;;10.45;54.94;97018.13;5025823;28;20170;-57
2023/02/19 00:53:53;;;;;;;0.90;0.90;;;;;;;9.85;54.93;96960.91;5025584;28;20111;-58
2023/02/19 00:56:20;;;;;;;0.80;0.80;;;;;;;9.80;55.70;96944.59;5025380;28;20136;-57
2023/02/19 00:58:47;;;;;;;0.80;0.80;;;;;;;10.13;55.73;97025.06;5024138;28;20159;-59
2023/02/19 01:01:15;;;;;;;0.80;0.80;;;;;;;10.08;56.21;97022.63;5025379;28;20073;-58
2023/02/19 01:03:42;;;;;;;0.90;0.90;;;;;;;9.58;56.57;96953.66;5023739;28;20065;-55
2023/02/19 01:06:10;;;;;;;0.80;0.80;;;;;;;9.95;56.86;97007.34;5025265;28;20042;-56
2023/02/19 01:08:37;;;;;;;0.80;0.80;;;;;;;9.56;56.92;96950.47;5025264;28;20092;-58
2023/02/19 01:11:04;;;;;;;0.80;0.80;;;;;;;9.93;56.58;97006.91;5025530;28;20580;-56
2023/02/19 01:13:32;;;;;;;0.80;0.80;;;;;;;9.48;56.53;96954.28;5025546;28;20057;-55
2023/02/19 01:16:09;;;;;;;0.75;0.75;;;;;;;9.49;56.96;96950.34;5025036;28;20136;-56
2023/02/19 01:18:36;;;;;;;0.70;0.70;;;;;;;9.68;57.31;96975.19;5025101;28;20155;-57
2023/02/19 01:21:07;;;;;;;0.70;0.70;;;;;;;9.77;57.12;96995.13;5025121;28;20085;-57
2023/02/19 01:23:35;;;;;;;0.70;0.70;;;;;;;9.87;56.46;97000.06;5023648;28;20053;-57
2023/02/19 01:26:07;;;;;;;0.80;0.80;;;;;;;9.90;56.73;96993.78;5023051;28;20045;-55
2023/02/19 01:28:34;;;;;;;0.80;0.80;;;;;;;9.73;56.32;96938.94;5024621;28;20053;-57
2023/02/19 01:31:03;;;;;;;0.77;0.77;;;;;;;9.99;56.29;96991.59;5024490;28;20088;-56
2023/02/19 01:33:30;;;;;;;0.80;0.80;;;;;;;9.93;56.67;96992.25;5024927;28;20053;-57
2023/02/19 01:35:57;;;;;;;0.73;0.73;;;;;;;9.88;56.74;97001.66;5022822;28;20053;-57
2023/02/19 01:38:24;;;;;;;0.70;0.70;;;;;;;9.98;56.76;96990.00;5024897;28;20471;-57
2023/02/19 01:41:02;;;;;;;0.77;0.77;;;;;;;9.88;57.06;96985.06;5024708;28;20093;-57
2023/02/19 01:43:32;;;;;;;0.80;0.80;;;;;;;9.84;56.58;96975.09;5022889;28;20084;-56
2023/02/19 01:45:59;;;;;;;0.80;0.80;;;;;;;9.89;56.34;96996.94;5022671;28;20049;-56
2023/02/19 01:48:28;;;;;;;0.80;0.80;;;;;;;9.50;56.14;96927.03;5024654;28;20057;-56
2023/02/19 01:51:01;;;;;;;0.85;0.85;;;;;;;9.88;56.53;96990.59;5024374;28;20402;-57
2023/02/19 01:53:32;;;;;;;0.80;0.80;;;;;;;9.86;56.38;96998.47;5024928;28;20053;-56
2023/02/19 01:56:00;;;;;;;0.82;0.82;;;;;;;9.44;56.57;96920.22;5024151;28;20045;-56
2023/02/19 01:58:30;;;;;;;0.80;0.80;;;;;;;9.83;56.71;96993.66;5023317;28;20593;-56
2023/02/19 02:00:59;;;;;;;0.80;0.80;;;;;;;9.82;56.55;96992.06;5023882;28;20084;-56
2023/02/19 02:03:26;;;;;;;0.80;0.80;;;;;;;9.72;57.46;96992.66;5022636;28;20057;-57
2023/02/19 02:06:08;;;;;;;0.90;0.90;;;;;;;9.79;57.27;96987.25;5022579;28;20103;-56
2023/02/19 02:11:20;;;;;;;0.80;0.80;;;;;;;9.46;58.46;96973.19;5024118;28;20136;-56
2023/02/19 02:13:48;;;;;;;0.77;0.77;;;;;;;9.23;58.68;96952.97;5022771;28;20049;-58
2023/02/19 02:16:21;;;;;;;0.70;0.70;;;;;;;9.08;59.41;96978.69;5017798;28;20143;-56
2023/02/19 02:19:15;;;;;;;0.80;0.80;;;;;;;8.98;60.33;96968.22;5023464;28;20057;-56
2023/02/19 02:21:48;;;;;;;0.70;0.70;;;;;;;8.65;60.88;96943.00;5024609;28;20164;-57
2023/02/19 02:25:08;;;;;;;0.70;0.70;;;;;;;8.72;61.05;96954.22;5024074;28;20425;-57
2023/02/19 02:28:09;;;;;;;0.70;0.70;;;;;;;8.71;61.89;96969.97;5007257;28;20054;-57
2023/02/19 02:30:44;;;;;;;0.68;0.68;;;;;;;8.81;60.93;96990.72;5004525;28;20176;-55
2023/02/19 02:33:25;;;;;;;0.70;0.70;;;;;;;8.97;59.87;96994.25;5004582;28;20137;-56
2023/02/19 02:36:07;;;;;;;0.70;0.70;;;;;;;9.02;59.70;97002.25;5004191;28;20161;-56
2023/02/19 02:38:38;;;;;;;0.70;0.70;;;;;;;8.93;59.11;96965.75;5019857;28;20099;-57
2023/02/19 02:41:05;;;;;;;0.70;0.70;;;;;;;9.10;59.81;96990.19;5023546;28;20053;-55
2023/02/19 02:43:32;;;;;;;0.70;0.70;;;;;;;9.13;59.93;97003.28;5024165;28;20080;-56
2023/02/19 02:45:59;;;;;;;0.70;0.70;;;;;;;9.00;60.18;96988.00;5023423;28;20045;-56
2023/02/19 02:48:43;;;;;;;0.77;0.77;;;;;;;9.11;60.35;97000.06;5023726;28;20169;-55
2023/02/19 02:51:37;;;;;;;0.70;0.70;;;;;;;9.26;59.76;96998.44;5023146;28;20050;-55
2023/02/19 02:56:55;;;;;;;0.75;0.75;;;;;;;9.05;61.11;96993.25;5023558;28;20057;-57
2023/02/19 02:59:26;;;;;;;0.70;0.70;;;;;;;8.96;60.84;96989.88;5022719;28;20064;-56
2023/02/19 03:02:12;;;;;;;0.75;0.75;;;;;;;8.06;64.54;97014.09;5023844;28;20049;-56
2023/02/19 03:07:45;;;;;;;0.60;0.60;;;;;;;7.96;64.82;97025.63;5026589;28;20077;-56
2023/02/19 03:10:24;;;;;;;0.60;0.60;;;;;;;7.83;66.12;97026.84;5026180;28;20556;-55
2023/02/19 03:21:20;;;;;;;0.60;0.60;;;;;;;7.81;66.39;97001.59;5007537;28;20053;-57
2023/02/19 03:26:33;;;;;;;0.70;0.70;;;;;;;7.68;65.90;96965.03;5008235;28;20148;-57
2023/02/19 03:31:51;;;;;;;0.60;0.60;;;;;;;7.76;65.34;96943.97;5027094;28;20159;-56
2023/02/19 03:34:30;;;;;;;0.70;0.70;;;;;;;8.23;64.10;96998.03;5026864;28;20081;-57
2023/02/19 03:37:24;;;;;;;0.70;0.70;;;;;;;8.22;64.07;97001.88;5026358;28;20081;-57
2023/02/19 03:39:52;;;;;;;0.60;0.60;;;;;;;8.26;63.86;97018.56;5007526;28;20425;-57
2023/02/19 03:42:39;;;;;;;0.60;0.60;;;;;;;8.39;62.69;97006.28;5006002;28;20568;-57
2023/02/19 03:45:35;;;;;;;0.60;0.60;;;;;;;8.28;63.35;97011.56;5007215;28;20103;-57
2023/02/19 03:48:20;;;;;;;0.70;0.70;;;;;;;8.25;64.79;96998.44;5024631;28;20049;-56
2023/02/19 03:50:54;;;;;;;0.60;0.60;;;;;;;8.03;65.11;97023.06;5026367;28;20571;-58
2023/02/19 03:53:44;;;;;;;0.60;0.60;;;;;;;6.97;65.28;96854.84;5026743;28;20094;-55
2023/02/19 03:56:19;;;;;;;0.60;0.60;;;;;;;7.76;66.54;97005.41;5026481;28;20049;-57
2023/02/19 03:58:59;;;;;;;0.60;0.60;;;;;;;7.38;67.28;97005.13;5024516;28;20114;-56
2023/02/19 04:01:48;;;;;;;0.60;0.60;;;;;;;7.68;66.43;97004.41;5026306;28;20136;-56
2023/02/19 04:04:25;;;;;;;0.60;0.60;;;;;;;7.17;66.37;96927.41;5026501;28;20086;-57
2023/02/19 04:06:55;;;;;;;0.60;0.60;;;;;;;7.00;67.17;96922.97;5026589;28;20080;-56
2023/02/19 04:09:26;;;;;;;0.60;0.60;;;;;;;7.86;65.23;97009.59;5024564;28;20065;-55
2023/02/19 04:11:54;;;;;;;0.60;0.60;;;;;;;7.89;65.55;97008.91;5026838;28;20049;-58
2023/02/19 04:14:34;;;;;;;0.60;0.60;;;;;;;7.92;65.41;97019.22;4988697;28;20064;-56
2023/02/19 04:17:04;;;;;;;0.60;0.60;;;;;;;7.97;64.93;97021.72;5006585;28;20050;-55
2023/02/19 04:19:36;;;;;;;0.60;0.60;;;;;;;7.98;63.11;96973.69;4985804;28;20116;-57
2023/02/19 04:22:05;;;;;;;0.60;0.60;;;;;;;8.15;63.07;96984.34;5001763;28;20047;-56
2023/02/19 04:24:47;;;;;;;0.70;0.70;;;;;;;8.24;62.97;97015.34;4987206;28;20058;-57
2023/02/19 04:27:14;;;;;;;0.60;0.60;;;;;;;7.95;63.01;96963.38;4987118;28;20509;-55
2023/02/19 04:29:41;;;;;;;0.70;0.70;;;;;;;8.29;62.45;97042.69;5004608;28;20057;-57
2023/02/19 04:32:10;;;;;;;0.60;0.60;;;;;;;8.35;62.32;97010.91;5006466;28;20065;-56
2023/02/19 04:34:37;;;;;;;0.70;0.70;;;;;;;7.96;63.30;97014.59;5006166;28;20107;-57
2023/02/19 04:37:04;;;;;;;0.60;0.60;;;;;;;8.08;63.99;97036.59;5006338;28;20147;-57
2023/02/19 04:39:31;;;;;;;0.70;0.70;;;;;;;8.02;63.96;97046.28;5005291;28;20069;-57
2023/02/19 04:41:58;;;;;;;0.60;0.60;;;;;;;7.72;65.61;97054.94;5005879;28;20049;-55
2023/02/19 04:44:24;;;;;;;0.60;0.60;;;;;;;7.78;65.34;97040.91;5006281;28;20103;-56
2023/02/19 04:46:51;;;;;;;0.60;0.60;;;;;;;7.45;65.67;97005.31;5005637;28;20046;-56
2023/02/19 04:49:17;;;;;;;0.60;0.60;;;;;;;7.62;65.89;97033.38;5005328;28;20049;-55
2023/02/19 04:51:44;;;;;;;0.60;0.60;;;;;;;7.58;66.37;97049.03;5005723;28;20119;-55
2023/02/19 04:54:11;;;;;;;0.60;0.60;;;;;;;7.68;65.22;97044.97;5005628;28;20479;-56
2023/02/19 04:56:38;;;;;;;0.60;0.60;;;;;;;7.78;65.52;97057.44;5004501;28;20491;-57
2023/02/19 04:59:05;;;;;;;0.60;0.60;;;;;;;7.50;66.38;97051.94;5004878;28;20057;-56
2023/02/19 05:01:32;;;;;;;0.60;0.60;;;;;;;7.45;66.26;97050.22;5004487;28;20053;-57
2023/02/19 05:03:59;;;;;;;0.60;0.60;;;;;;;7.21;67.05;97010.91;5005685;28;20092;-55
2023/02/19 05:06:26;;;;;;;0.60;0.60;;;;;;;6.60;67.89;96980.00;5004226;28;20136;-55
2023/02/19 05:08:52;;;;;;;0.60;0.60;;;;;;;7.18;66.41;97028.97;5005249;28;20057;-56
2023/02/19 05:11:19;;;;;;;0.60;0.60;;;;;;;7.29;67.39;97052.09;5004844;28;20088;-58
2023/02/19 05:13:46;;;;;;;0.60;0.60;;;;;;;7.40;66.89;97036.69;5005318;28;20054;-56
2023/02/19 05:16:14;;;;;;;0.60;0.60;;;;;;;7.27;66.80;97017.81;5005372;28;20046;-57
2023/02/19 05:18:44;;;;;;;0.63;0.63;;;;;;;7.37;66.69;97048.41;5005250;28;20084;-57
2023/02/19 05:21:11;;;;;;;0.50;0.50;;;;;;;7.42;66.87;97050.94;5003466;28;20115;-58
2023/02/19 05:23:39;;;;;;;0.52;0.52;;;;;;;7.27;67.94;97061.88;5005285;28;20050;-56
2023/02/19 05:26:19;;;;;;;0.60;0.60;;;;;;;7.10;66.58;97007.84;5003922;28;20085;-57
2023/02/19 05:28:49;;;;;;;0.57;0.57;;;;;;;7.02;65.88;96974.94;5005012;28;20053;-57
2023/02/19 05:31:16;;;;;;;0.60;0.60;;;;;;;7.35;65.72;96994.81;5004126;28;20116;-56
2023/02/19 05:33:46;;;;;;;0.70;0.70;;;;;;;7.17;64.40;96922.69;5004980;28;20501;-56
2023/02/19 05:36:13;;;;;;;0.60;0.60;;;;;;;8.43;62.01;97056.84;5005415;28;20133;-58
2023/02/19 05:38:40;;;;;;;0.63;0.63;;;;;;;7.63;66.19;97062.53;5005154;28;20501;-57
2023/02/19 05:41:17;;;;;;;0.60;0.60;;;;;;;7.91;65.26;97046.00;5004335;28;20096;-57
2023/02/19 05:43:45;;;;;;;0.60;0.60;;;;;;;8.33;62.50;97062.91;5005159;28;20119;-58
2023/02/19 05:46:14;;;;;;;0.60;0.60;;;;;;;8.74;59.69;97007.16;5004042;28;20577;-56
2023/02/19 05:48:41;;;;;;;0.60;0.60;;;;;;;8.93;60.18;97070.72;5004716;28;20563;-57
2023/02/19 05:51:11;;;;;;;0.60;0.60;;;;;;;8.82;60.52;97075.19;5004484;28;20465;-58
2023/02/19 05:53:38;;;;;;;0.70;0.70;;;;;;;8.73;60.39;97055.22;5004458;28;20468;-57
2023/02/19 05:56:23;;;;;;;0.70;0.70;;;;;;;9.12;59.78;97090.09;5004796;28;20141;-56
2023/02/19 05:58:49;;;;;;;0.70;0.70;;;;;;;8.81;60.25;97079.09;5004655;28;20463;-57
2023/02/19 06:01:18;;;;;;;0.70;0.70;;;;;;;9.24;59.76;97098.28;5004593;28;20148;-57
2023/02/19 06:03:44;;;;;;;0.60;0.60;;;;;;;9.44;59.06;97099.91;5003558;28;20144;-58
2023/02/19 06:06:16;;;;;;;0.70;0.70;;;;;;;9.64;58.37;97095.22;5004436;28;20058;-56
2023/02/19 06:08:43;;;;;;;0.80;0.80;;;;;;;9.53;57.82;97094.97;5004207;28;20441;-57
2023/02/19 06:11:10;;;;;;;0.80;0.80;;;;;;;9.77;57.64;97122.38;5004220;28;20092;-58
2023/02/19 06:13:37;;;;;;;0.80;0.80;;;;;;;9.42;57.41;97071.81;5003884;28;20128;-57
2023/02/19 06:16:05;;;;;;;0.70;0.70;;;;;;;9.20;57.40;97042.13;5004659;28;20049;-57
2023/02/19 06:18:32;;;;;;;0.73;0.73;;;;;;;10.02;57.02;97137.50;5002847;28;20054;-57
2023/02/19 06:21:07;;;;;;;0.70;0.70;;;;;;;9.51;58.92;97119.44;5004667;28;20552;-56
2023/02/19 06:23:35;;;;;;;0.80;0.80;;;;;;;9.52;58.04;97118.25;4989108;28;20060;-56
2023/02/19 06:26:18;;;;;;;0.70;0.70;;;;;;;9.13;57.73;97011.56;5004450;28;20077;-57
2023/02/19 06:28:46;;;;;;;0.70;0.70;;;;;;;10.05;56.27;97105.56;5003952;28;20062;-56
2023/02/19 06:31:13;;;;;;;0.70;0.70;;;;;;;10.37;55.60;97110.56;5003783;28;20057;-57
2023/02/19 06:33:40;;;;;;;0.90;0.90;;;;;;;10.61;55.70;97118.53;5003045;28;20073;-58
2023/02/19 06:36:11;;;;;;;0.80;0.80;;;;;;;10.29;57.24;97110.81;5001917;28;20045;-56
2023/02/19 06:38:38;;;;;;;0.80;0.80;;;;;;;10.54;56.48;97115.63;5001453;28;20053;-57
2023/02/19 06:41:06;;;;;;;0.82;0.82;;;;;;;10.60;55.83;97122.47;5004331;28;20132;-56
2023/02/19 06:43:33;;;;;;;0.80;0.80;;;;;;;10.70;55.85;97132.94;5006525;28;20050;-57
2023/02/19 06:46:05;;;;;;;0.90;0.90;;;;;;;10.85;55.00;97111.00;5007703;28;20579;-56
2023/02/19 06:48:32;;;;;;;0.88;0.88;;;;;;;11.24;53.82;97123.56;5007925;28;20065;-56
2023/02/19 06:50:59;;;;;;;0.88;0.88;;;;;;;11.25;53.84;97111.28;5007986;28;20484;-56
2023/02/19 06:53:26;;;;;;;1.00;1.00;;;;;;;11.46;53.20;97109.59;5007756;28;20054;-58
2023/02/19 06:56:04;;;;;;;0.90;0.90;;;;;;;12.25;51.54;97096.38;5007342;28;20049;-57
2023/02/19 06:58:31;;;;;;;1.00;1.00;;;;;;;13.01;50.59;97106.72;5008064;28;20132;-56
2023/02/19 07:00:58;;;;;;;1.08;1.08;;;;;;;13.19;47.79;97052.03;5006437;28;20053;-58
2023/02/19 07:03:25;;;;;;;1.00;1.00;;;;;;;13.53;46.91;97045.06;5007643;28;20429;-57
2023/02/19 07:05:52;;;;;;;1.00;1.00;;;;;;;14.36;46.71;97103.56;5005373;28;20050;-56
2023/02/19 07:08:19;;;;;;;1.10;1.10;;;;;;;14.88;45.56;97109.25;5008011;28;20596;-57
2023/02/19 07:10:55;;;;;;;1.30;1.30;;;;;;;14.84;44.84;97102.84;5005927;28;20053;-58
2023/02/19 07:13:23;;;;;;;1.30;1.30;;;;;;;14.96;44.84;97098.91;5007599;28;20522;-58
2023/02/19 07:15:50;;;;;;;1.30;1.30;;;;;;;14.62;44.00;97022.38;5005578;28;20583;-58
2023/02/19 07:18:17;;;;;;;1.30;1.30;;;;;;;15.22;44.11;97094.91;5007016;28;20447;-57
2023/02/19 07:20:44;;;;;;;1.30;1.30;;;;;;;15.35;43.54;97098.91;5006949;28;20113;-57
2023/02/19 07:23:11;;;;;;;1.40;1.40;;;;;;;15.51;43.32;97083.34;5007607;28;20104;-56
2023/02/19 07:25:38;;;;;;;1.30;1.30;;;;;;;15.62;42.80;97086.91;5007256;28;20520;-58
2023/02/19 07:28:05;;;;;;;1.30;1.30;;;;;;;15.64;42.80;97078.94;5006978;28;20050;-57
2023/02/19 07:30:32;;;;;;;1.25;1.25;;;;;;;15.30;42.50;97015.56;5005568;28;20099;-58
2023/02/19 07:32:58;;;;;;;1.50;1.50;;;;;;;15.67;42.47;97077.31;5005358;28;20517;-57
2023/02/19 07:35:25;;;;;;;1.30;1.30;;;;;;;15.76;42.46;97100.84;5015733;28;20127;-57
2023/02/19 07:37:52;;;;;;;1.42;1.42;;;;;;;15.22;42.33;97028.75;5026698;28;20057;-58
2023/02/19 07:40:18;;;;;;;1.40;1.40;;;;;;;15.82;42.33;97093.66;5026778;28;20053;-58
2023/02/19 07:42:45;;;;;;;1.50;1.50;;;;;;;16.02;42.08;97089.22;4996561;28;20541;-58
2023/02/19 07:45:26;;;;;;;1.50;1.50;;;;;;;16.21;41.66;97097.13;129648;28;10020806;-58
2023/02/19 07:47:53;;;;;;;1.27;1.27;;;;;;;16.27;41.70;97087.09;171247;28;10020761;-58
2023/02/19 07:50:19;;;;;;;1.58;1.58;;;;;;;16.38;41.17;97096.25;4987408;28;20102;-57
2023/02/19 07:52:46;;;;;;;1.60;1.60;;;;;;;16.52;41.02;97096.19;4986719;28;20061;-58
2023/02/19 07:55:13;;;;;;;1.30;1.30;;;;;;;16.54;41.22;97088.22;4999689;28;20594;-58
2023/02/19 07:57:40;;;;;;;1.40;1.40;;;;;;;16.58;41.29;97083.38;5005442;28;20130;-57
2023/02/19 08:00:07;;;;;;;1.42;1.42;;;;;;;16.63;40.59;97089.75;5006197;28;20514;-59
2023/02/19 08:05:19;;;;;;;1.55;1.55;;;;;;;16.70;40.70;97095.28;4999818;28;20127;-56
2023/02/19 08:07:45;;;;;;;1.55;1.55;;;;;;;16.40;40.50;97049.09;5005043;28;20050;-56
2023/02/19 08:16:07;;;;;;;1.48;1.48;;;;;;;16.56;40.21;97021.47;5006191;28;20833;-55
2023/02/19 08:18:46;;;;;;;1.55;1.55;;;;;;;16.99;40.47;97085.50;4986921;28;20249;-56
2023/02/19 08:21:13;;;;;;;1.60;1.60;;;;;;;17.01;40.40;97077.50;4986595;28;20058;-55
2023/02/19 08:23:40;;;;;;;1.60;1.60;;;;;;;16.78;40.46;97047.28;4987101;28;20046;-56
2023/02/19 08:26:08;;;;;;;1.50;1.50;;;;;;;16.78;40.31;97063.28;4995649;28;20143;-57
2023/02/19 08:28:35;;;;;;;1.80;1.80;;;;;;;17.03;40.29;97069.47;5006096;28;20042;-56
2023/02/19 08:31:04;;;;;;;1.73;1.73;;;;;;;17.10;40.44;97086.22;5006108;28;20054;-57
2023/02/19 08:33:31;;;;;;;1.60;1.60;;;;;;;16.74;40.31;97003.78;5006328;28;20073;-57
2023/02/19 08:36:03;;;;;;;1.55;1.55;;;;;;;17.19;40.35;97072.56;5005245;28;20113;-56
2023/02/19 08:38:35;;;;;;;1.80;1.80;;;;;;;17.38;40.16;97081.19;5005618;28;20069;-58
2023/02/19 08:41:07;;;;;;;1.60;1.60;;;;;;;17.62;39.95;97085.00;5005359;28;20053;-58
2023/02/19 08:43:35;;;;;;;1.55;1.55;;;;;;;17.34;39.57;97041.22;5006097;28;20058;-56
2023/02/19 08:46:02;;;;;;;1.73;1.73;;;;;;;17.59;39.97;97069.03;5005678;28;20104;-56
2023/02/19 08:48:29;;;;;;;1.80;1.80;;;;;;;17.85;39.50;97080.34;5005233;28;20148;-56
2023/02/19 08:50:57;;;;;;;1.88;1.88;;;;;;;18.01;39.44;97103.00;5005678;28;20065;-59
2023/02/19 08:53:24;;;;;;;1.80;1.80;;;;;;;17.92;39.41;97096.28;5005679;28;20081;-57
2023/02/19 08:55:52;;;;;;;1.65;1.65;;;;;;;17.96;39.26;97089.44;5004051;28;20099;-57
2023/02/19 08:58:18;;;;;;;1.85;1.85;;;;;;;17.85;39.51;97031.91;5002601;28;20554;-56
2023/02/19 09:00:45;;;;;;;1.70;1.70;;;;;;;18.31;39.39;97093.81;4985777;28;20050;-57
2023/02/19 09:03:12;;;;;;;1.63;1.63;;;;;;;18.19;39.39;97080.34;4986520;28;20050;-57
2023/02/19 09:05:39;;;;;;;1.73;1.73;;;;;;;18.28;39.52;97066.63;4985405;28;20520;-58
2023/02/19 09:08:06;;;;;;;1.90;1.90;;;;;;;18.08;39.15;97006.81;4997804;28;20125;-56
2023/02/19 09:10:33;;;;;;;1.88;1.88;;;;;;;18.17;39.13;97004.28;5004506;28;20065;-58
2023/02/19 09:13:01;;;;;;;1.98;1.98;;;;;;;18.23;38.59;96996.16;5005478;28;20152;-56
2023/02/19 09:15:28;;;;;;;1.88;1.88;;;;;;;18.80;38.69;97070.75;5005061;28;20521;-57
2023/02/19 09:17:55;;;;;;;2.00;2.00;;;;;;;18.81;38.07;97077.94;5003985;28;20045;-57
2023/02/19 09:20:21;;;;;;;2.15;2.15;;;;;;;18.82;37.98;97029.00;5002971;28;20057;-57
2023/02/19 09:22:48;;;;;;;2.10;2.10;;;;;;;18.75;38.27;96998.22;5005122;28;20507;-57
2023/02/19 09:25:15;;;;;;;2.08;2.08;;;;;;;19.30;38.18;97077.19;5004635;28;20532;-58
2023/02/19 09:27:42;;;;;;;2.00;2.00;;;;;;;19.22;37.93;97069.28;5003051;28;20050;-57
2023/02/19 09:30:09;;;;;;;2.03;2.03;;;;;;;19.14;37.94;97074.19;5003716;28;20053;-56
2023/02/19 09:32:35;;;;;;;1.90;1.90;;;;;;;19.23;37.81;97077.28;5005038;28;20053;-57
2023/02/19 09:35:02;;;;;;;1.88;1.88;;;;;;;19.23;37.63;97066.06;5005018;28;20595;-56
2023/02/19 09:37:29;;;;;;;2.17;2.17;;;;;;;19.39;37.68;97074.63;5004766;28;20464;-57
2023/02/19 09:39:58;;;;;;;1.92;1.92;;;;;;;19.48;37.46;97077.69;5004154;28;20057;-58
2023/02/19 09:42:28;;;;;;;1.95;1.95;;;;;;;19.49;37.34;97082.06;5005322;28;20533;-58
2023/02/19 09:44:57;;;;;;;2.22;2.22;;;;;;;19.54;37.14;97078.78;5004026;28;20157;-56
2023/02/19 09:47:27;;;;;;;2.00;2.00;;;;;;;19.63;37.14;97078.25;5004986;28;20103;-57
2023/02/19 09:50:09;;;;;;;1.80;1.80;;;;;;;19.66;36.79;97076.56;5004298;28;20595;-56
2023/02/19 09:52:50;;;;;;;2.20;2.20;;;;;;;19.85;36.71;97078.63;5002377;28;20100;-57
2023/02/19 09:55:28;;;;;;;2.15;2.15;;;;;;;19.66;37.09;97070.94;5004558;28;20050;-58
2023/02/19 09:57:56;;;;;;;1.90;1.90;;;;;;;19.75;36.76;97059.94;5004615;28;20125;-56
2023/02/19 10:00:25;;;;;;;2.00;2.00;;;;;;;19.79;36.43;97066.31;5004624;28;20105;-58
2023/02/19 10:03:04;;;;;;;2.22;2.22;;;;;;;19.76;36.56;97048.25;5004151;28;20085;-56
2023/02/19 10:05:32;;;;;;;2.08;2.08;;;;;;;19.81;36.30;97077.88;5003026;28;20490;-56
2023/02/19 10:08:03;;;;;;;1.98;1.98;;;;;;;19.40;36.61;97036.09;5004671;28;20060;-58
2023/02/19 10:10:33;;;;;;;2.00;2.00;;;;;;;19.66;36.70;97056.91;5004144;28;20057;-57
2023/02/19 10:13:20;;;;;;;1.98;1.98;;;;;;;19.74;36.48;97047.13;5003289;28;20050;-56
2023/02/19 10:15:50;;;;;;;1.80;1.80;;;;;;;19.72;36.57;97052.38;5004385;28;20124;-56
2023/02/19 10:18:23;;;;;;;2.00;2.00;;;;;;;19.52;37.05;97027.81;5004606;28;20062;-56
2023/02/19 10:20:51;;;;;;;1.92;1.92;;;;;;;19.84;36.38;97040.50;5004000;28;20177;-56
2023/02/19 10:23:18;;;;;;;2.05;2.05;;;;;;;19.89;36.24;97045.59;5004139;28;20065;-59
2023/02/19 10:25:57;;;;;;;2.00;2.00;;;;;;;19.88;35.99;97027.97;5002337;28;20053;-58
2023/02/19 10:28:33;;;;;;;2.00;2.00;;;;;;;19.75;36.37;97029.03;5002348;28;20058;-58
2023/02/19 10:31:03;;;;;;;2.10;2.10;;;;;;;19.93;36.14;97029.47;5004317;28;20116;-56
2023/02/19 10:33:30;;;;;;;1.90;1.90;;;;;;;20.13;35.74;97010.56;5004253;28;20479;-57
2023/02/19 10:35:59;;;;;;;2.38;2.33;;;;;;;20.27;35.68;97015.94;5003790;28;20402;-57
2023/02/19 10:38:32;;;;;;;2.20;2.20;;;;;;;20.29;35.43;97017.09;5003347;28;20053;-57
2023/02/19 10:41:07;;;;;;;2.08;2.08;;;;;;;20.29;35.52;97014.28;5002394;28;20505;-55
2023/02/19 10:43:38;;;;;;;1.98;1.98;;;;;;;20.20;35.69;97011.25;5003932;28;20050;-56
2023/02/19 10:46:16;;;;;;;2.25;2.25;;;;;;;20.26;35.27;96997.47;5004033;28;20157;-58
2023/02/19 10:48:52;;;;;;;2.20;2.20;;;;;;;20.12;35.57;96983.69;5002220;28;20049;-60
2023/02/19 10:51:25;;;;;;;2.20;2.20;;;;;;;20.43;35.38;97001.91;4984366;28;20050;-57
2023/02/19 10:54:14;;;;;;;2.30;2.30;;;;;;;20.61;34.84;96974.16;4984474;28;20054;-58
2023/02/19 10:56:41;;;;;;;2.30;2.30;;;;;;;20.68;34.91;96996.50;4984602;28;20375;-57
2023/02/19 10:59:27;;;;;;;2.20;2.20;;;;;;;20.93;34.65;96982.63;5002972;28;20042;-55
2023/02/19 11:01:59;;;;;;;2.30;2.30;;;;;;;21.01;34.35;96986.88;5003899;28;20112;-55
2023/02/19 11:04:32;;;;;;;2.17;2.17;;;;;;;20.84;34.30;96971.19;5002319;28;20108;-55
2023/02/19 11:07:17;;;;;;;;;;;;;;;20.68;34.41;96982.44;5004116;28;20100;-58
2023/02/19 11:09:45;;;;;;;2.00;2.00;;;;;;;20.16;34.79;96928.97;5003256;28;20032;-55
2023/02/19 11:12:22;;;;;;;2.08;2.08;;;;;;;20.14;34.58;96939.06;5003762;28;20108;-57
2023/02/19 11:14:48;;;;;;;2.17;2.17;;;;;;;20.38;34.96;96988.34;5003550;28;20088;-57
2023/02/19 11:17:29;;;;;;;2.17;2.17;;;;;;;20.09;34.91;96931.88;5023216;28;20064;-55
2023/02/19 11:19:59;;;;;;;2.30;2.30;;;;;;;20.27;34.75;96976.53;5024253;28;20053;-58
2023/02/19 11:22:45;;;;;;;2.50;2.40;;;;;;;20.40;34.91;96963.41;5021674;28;20313;-57
2023/02/19 11:25:12;;;;;;;2.10;2.10;;;;;;;20.47;34.69;96974.50;5023650;28;20508;-61
2023/02/19 11:28:25;;;;;;;2.35;2.35;;;;;;;20.83;34.70;96963.97;5024090;28;20081;-56
2023/02/19 11:30:51;;;;;;;2.28;2.28;;;;;;;20.67;34.01;96950.69;5025492;28;20140;-55
2023/02/19 11:33:25;;;;;;;2.22;2.22;;;;;;;20.61;34.46;96962.91;5026934;28;20053;-55
2023/02/19 11:36:15;;;;;;;1.90;1.90;;;;;;;18.84;34.72;96711.41;5026746;28;20064;-56
2023/02/19 11:38:42;;;;;;;2.30;2.30;;;;;;;20.43;34.70;96935.19;5023717;28;20513;-58
2023/02/19 11:41:19;;;;;;;2.00;2.00;;;;;;;20.44;34.94;96964.88;5022298;28;20054;-56
2023/02/19 11:44:32;;;;;;;2.15;2.15;;;;;;;20.36;35.07;96957.06;5007021;28;20112;-57
2023/02/19 11:47:02;;;;;;;2.10;2.10;;;;;;;20.29;35.09;96960.03;5006766;28;20058;-56
2023/02/19 11:49:47;;;;;;;1.80;1.80;;;;;;;20.28;35.37;96950.00;5008865;28;20818;-56
2023/02/19 11:52:35;;;;;;;1.90;1.90;;;;;;;20.31;35.50;96961.16;5026263;28;20514;-57
2023/02/19 11:55:13;;;;;;;2.20;2.20;;;;;;;20.37;35.55;96953.00;5026414;28;20091;-58
2023/02/19 11:57:44;;;;;;;2.13;2.13;;;;;;;20.47;35.30;96943.53;5026321;28;20547;-57
2023/02/19 12:00:22;;;;;;;2.15;2.15;;;;;;;20.55;35.41;96953.41;5026775;28;20072;-56
2023/02/19 12:03:26;;;;;;;2.25;2.25;;;;;;;20.61;34.98;96943.22;5025706;28;20049;-56
2023/02/19 12:06:16;;;;;;;2.25;2.25;;;;;;;20.63;34.86;96937.91;5026623;28;20096;-58
2023/02/19 12:09:01;;;;;;;2.13;2.13;;;;;;;20.39;35.14;96950.56;5024646;28;20489;-56
2023/02/19 12:11:41;;;;;;;2.10;2.10;;;;;;;20.43;35.05;96928.75;5026682;28;20077;-57
2023/02/19 12:14:30;;;;;;;2.20;2.20;;;;;;;20.41;35.01;96936.81;5025467;28;20132;-57
2023/02/19 12:17:00;;;;;;;2.20;2.20;;;;;;;20.48;34.80;96933.88;5025906;28;20100;-55
2023/02/19 12:20:09;;;;;;;2.15;2.15;;;;;;;20.37;35.08;96947.38;5006582;28;20069;-58
2023/02/19 12:22:45;;;;;;;2.08;2.08;;;;;;;20.41;35.06;96936.81;5014997;28;20559;-57
2023/02/19 12:25:18;;;;;;;2.30;2.30;;;;;;;20.54;35.10;96926.47;5024913;28;20070;-58
2023/02/19 12:28:24;;;;;;;2.07;2.07;;;;;;;20.53;34.86;96922.09;5025441;28;20315;-57
2023/02/19 12:31:27;;;;;;;2.20;2.20;;;;;;;20.63;35.10;96921.00;5025820;28;20563;-58